createdAt,value
2023-07-25T00:00:31.197Z,0.00
2023-07-25T00:01:31.570Z,0.00
2023-07-25T00:02:31.200Z,0.00
2023-07-25T00:03:31.150Z,0.00
2023-07-25T00:04:31.194Z,0.00
2023-07-25T00:05:31.107Z,0.00
2023-07-25T00:06:31.173Z,1.00
2023-07-25T00:07:31.165Z,0.00
2023-07-25T00:08:31.090Z,0.00
2023-07-25T00:09:31.089Z,0.00
2023-07-25T00:10:31.086Z,0.00
2023-07-25T00:11:31.325Z,0.00
2023-07-25T00:12:31.086Z,0.00
2023-07-25T00:13:31.130Z,1.00
2023-07-25T00:14:31.010Z,0.00
2023-07-25T00:15:31.001Z,0.00
2023-07-25T00:16:31.021Z,0.00
2023-07-25T00:17:31.155Z,0.00
2023-07-25T00:18:30.967Z,0.00
2023-07-25T00:19:30.972Z,0.00
2023-07-25T00:20:30.962Z,0.00
2023-07-25T00:21:31.363Z,0.00
2023-07-25T00:22:30.934Z,0.00
2023-07-25T00:23:30.944Z,0.00
2023-07-25T00:24:30.947Z,0.00
2023-07-25T00:25:30.922Z,0.00
2023-07-25T00:26:30.912Z,0.00
2023-07-25T00:27:30.954Z,0.00
2023-07-25T00:28:30.869Z,0.00
2023-07-25T00:29:30.950Z,0.00
2023-07-25T00:30:30.857Z,0.00
2023-07-25T00:31:31.109Z,0.00
2023-07-25T00:32:30.960Z,0.00
2023-07-25T00:33:30.836Z,0.00
2023-07-25T00:34:30.855Z,0.00
2023-07-25T00:35:30.817Z,0.00
2023-07-25T00:36:30.777Z,0.00
2023-07-25T00:37:30.786Z,0.00
2023-07-25T00:38:30.770Z,0.00
2023-07-25T00:39:30.817Z,0.00
2023-07-25T00:40:30.799Z,0.00
2023-07-25T00:41:31.083Z,0.00
2023-07-25T00:42:30.724Z,0.00
2023-07-25T00:43:30.724Z,0.00
2023-07-25T00:44:30.715Z,0.00
2023-07-25T00:45:30.797Z,0.00
2023-07-25T00:46:30.731Z,0.00
2023-07-25T00:47:30.709Z,0.00
2023-07-25T00:48:30.661Z,0.00
2023-07-25T00:49:30.820Z,0.00
2023-07-25T00:50:30.688Z,0.00
2023-07-25T00:51:31.066Z,0.00
2023-07-25T00:52:30.612Z,0.00
2023-07-25T00:53:30.614Z,0.00
2023-07-25T00:54:30.588Z,0.00
2023-07-25T00:55:30.645Z,0.00
2023-07-25T00:56:30.587Z,0.00
2023-07-25T00:57:30.584Z,0.00
2023-07-25T00:58:30.628Z,0.00
2023-07-25T00:59:30.535Z,0.00
2023-07-25T01:00:30.546Z,0.00
2023-07-25T01:01:30.793Z,0.00
2023-07-25T01:02:30.566Z,0.00
2023-07-25T01:03:30.567Z,0.00
2023-07-25T01:04:30.499Z,0.00
2023-07-25T01:05:30.512Z,0.00
2023-07-25T01:06:30.597Z,0.00
2023-07-25T01:07:30.471Z,0.00
2023-07-25T01:08:30.417Z,1.00
2023-07-25T01:09:30.443Z,0.00
2023-07-25T01:10:30.436Z,0.00
2023-07-25T01:11:30.793Z,0.00
2023-07-25T01:12:30.398Z,0.00
2023-07-25T01:13:30.514Z,0.00
2023-07-25T01:14:30.383Z,0.00
2023-07-25T01:15:30.409Z,0.00
2023-07-25T01:16:30.454Z,0.00
2023-07-25T01:17:30.381Z,0.00
2023-07-25T01:18:30.352Z,0.00
2023-07-25T01:19:30.516Z,0.00
2023-07-25T01:20:30.313Z,0.00
2023-07-25T01:21:30.613Z,0.00
2023-07-25T01:22:30.293Z,0.00
2023-07-25T01:23:30.247Z,1.00
2023-07-25T01:24:30.460Z,0.00
2023-07-25T01:25:30.265Z,0.00
2023-07-25T01:26:30.276Z,0.00
2023-07-25T01:27:30.331Z,0.00
2023-07-25T01:28:30.327Z,0.00
2023-07-25T01:29:30.236Z,0.00
2023-07-25T01:30:30.218Z,0.00
2023-07-25T01:31:30.427Z,0.00
2023-07-25T01:32:30.226Z,0.00
2023-07-25T01:33:30.181Z,0.00
2023-07-25T01:34:30.211Z,0.00
2023-07-25T01:35:30.187Z,0.00
2023-07-25T01:36:30.141Z,0.00
2023-07-25T01:37:30.174Z,0.00
2023-07-25T01:38:30.127Z,0.00
2023-07-25T01:39:30.310Z,0.00
2023-07-25T01:40:30.129Z,0.00
2023-07-25T01:41:30.644Z,0.00
2023-07-25T01:42:30.091Z,0.00
2023-07-25T01:43:30.085Z,0.00
2023-07-25T01:44:30.068Z,0.00
2023-07-25T01:45:30.148Z,0.00
2023-07-25T01:46:30.042Z,0.00
2023-07-25T01:47:30.097Z,0.00
2023-07-25T01:48:30.032Z,0.00
2023-07-25T01:49:29.997Z,0.00
2023-07-25T01:50:30.018Z,0.00
2023-07-25T01:51:30.341Z,0.00
2023-07-25T01:52:30.106Z,0.00
2023-07-25T01:53:29.964Z,0.00
2023-07-25T01:54:30.004Z,0.00
2023-07-25T01:55:29.977Z,0.00
2023-07-25T01:56:29.939Z,0.00
2023-07-25T01:57:29.957Z,0.00
2023-07-25T01:58:29.961Z,0.00
2023-07-25T01:59:29.906Z,0.00
2023-07-25T02:00:29.918Z,0.00
2023-07-25T02:01:30.315Z,0.00
2023-07-25T02:02:29.934Z,0.00
2023-07-25T02:03:29.901Z,0.00
2023-07-25T02:04:29.857Z,0.00
2023-07-25T02:05:29.847Z,0.00
2023-07-25T02:06:29.833Z,0.00
2023-07-25T02:07:30.140Z,0.00
2023-07-25T02:08:29.800Z,0.00
2023-07-25T02:09:29.823Z,0.00
2023-07-25T02:10:29.811Z,0.00
2023-07-25T02:11:30.140Z,0.00
2023-07-25T02:12:29.790Z,0.00
2023-07-25T02:13:29.757Z,0.00
2023-07-25T02:14:29.769Z,0.00
2023-07-25T02:15:29.795Z,0.00
2023-07-25T02:16:29.762Z,0.00
2023-07-25T02:17:29.741Z,0.00
2023-07-25T02:18:29.738Z,0.00
2023-07-25T02:19:29.702Z,0.00
2023-07-25T02:20:29.743Z,0.00
2023-07-25T02:21:29.969Z,0.00
2023-07-25T02:22:29.659Z,0.00
2023-07-25T02:23:29.645Z,0.00
2023-07-25T02:24:29.685Z,0.00
2023-07-25T02:25:29.661Z,0.00
2023-07-25T02:26:29.635Z,0.00
2023-07-25T02:27:29.610Z,0.00
2023-07-25T02:28:29.596Z,0.00
2023-07-25T02:29:29.593Z,0.00
2023-07-25T02:30:29.588Z,0.00
2023-07-25T02:31:30.247Z,0.00
2023-07-25T02:32:29.586Z,0.00
2023-07-25T02:33:29.534Z,0.00
2023-07-25T02:34:29.533Z,0.00
2023-07-25T02:35:29.649Z,0.00
2023-07-25T02:36:29.530Z,0.00
2023-07-25T02:37:29.516Z,0.00
2023-07-25T02:38:29.501Z,0.00
2023-07-25T02:39:29.479Z,0.00
2023-07-25T02:40:29.489Z,0.00
2023-07-25T02:41:30.079Z,0.00
2023-07-25T02:42:29.443Z,0.00
2023-07-25T02:43:29.434Z,0.00
2023-07-25T02:44:29.946Z,0.00
2023-07-25T02:45:29.398Z,0.00
2023-07-25T02:46:29.630Z,0.00
2023-07-25T02:47:29.412Z,0.00
2023-07-25T02:48:29.423Z,0.00
2023-07-25T02:49:29.370Z,0.00
2023-07-25T02:50:29.386Z,0.00
2023-07-25T02:51:29.738Z,0.00
2023-07-25T02:52:29.328Z,0.00
2023-07-25T02:53:29.326Z,0.00
2023-07-25T02:54:29.370Z,0.00
2023-07-25T02:55:29.327Z,0.00
2023-07-25T02:56:29.288Z,0.00
2023-07-25T02:57:29.272Z,0.00
2023-07-25T02:58:29.284Z,0.00
2023-07-25T02:59:29.452Z,0.00
2023-07-25T03:00:29.297Z,0.00
2023-07-25T03:01:29.422Z,0.00
2023-07-25T03:02:29.280Z,0.00
2023-07-25T03:03:29.215Z,0.00
2023-07-25T03:04:29.159Z,1.00
2023-07-25T03:05:29.170Z,1.00
2023-07-25T03:06:29.142Z,1.00
2023-07-25T03:07:29.138Z,1.00
2023-07-25T03:08:29.143Z,1.00
2023-07-25T03:09:29.143Z,1.00
2023-07-25T03:10:29.089Z,2.00
2023-07-25T03:11:29.322Z,2.00
2023-07-25T03:12:29.101Z,2.00
2023-07-25T03:13:29.087Z,1.00
2023-07-25T03:14:29.189Z,1.00
2023-07-25T03:15:29.085Z,0.00
2023-07-25T03:16:29.102Z,2.00
2023-07-25T03:17:29.044Z,1.00
2023-07-25T03:18:29.002Z,2.00
2023-07-25T03:19:28.996Z,8.00
2023-07-25T03:20:29.061Z,4.00
2023-07-25T03:21:29.428Z,3.00
2023-07-25T03:22:28.993Z,3.00
2023-07-25T03:23:28.975Z,2.00
2023-07-25T03:24:28.989Z,6.00
2023-07-25T03:25:28.920Z,7.00
2023-07-25T03:26:28.937Z,6.00
2023-07-25T03:27:29.912Z,4.00
2023-07-25T03:28:28.942Z,7.00
2023-07-25T03:29:28.888Z,9.00
2023-07-25T03:30:28.961Z,10.00
2023-07-25T03:31:29.038Z,10.00
2023-07-25T03:32:28.892Z,11.00
2023-07-25T03:33:28.886Z,15.00
2023-07-25T03:34:28.833Z,15.00
2023-07-25T03:35:28.813Z,19.00
2023-07-25T03:36:28.885Z,19.00
2023-07-25T03:37:28.839Z,18.00
2023-07-25T03:38:28.835Z,21.00
2023-07-25T03:39:28.797Z,24.00
2023-07-25T03:40:28.793Z,23.00
2023-07-25T03:41:29.088Z,20.00
2023-07-25T03:42:29.009Z,28.00
2023-07-25T03:43:28.734Z,32.00
2023-07-25T03:44:28.722Z,31.00
2023-07-25T03:45:28.733Z,35.00
2023-07-25T03:46:28.768Z,34.00
2023-07-25T03:47:28.701Z,40.00
2023-07-25T03:48:29.557Z,44.00
2023-07-25T03:49:28.704Z,47.00
2023-07-25T03:50:28.666Z,48.00
2023-07-25T03:51:28.805Z,54.00
2023-07-25T03:52:28.632Z,60.00
2023-07-25T03:53:28.620Z,62.00
2023-07-25T03:54:28.619Z,64.00
2023-07-25T03:55:28.751Z,71.00
2023-07-25T03:56:28.593Z,76.00
2023-07-25T03:57:28.583Z,84.00
2023-07-25T03:58:28.640Z,82.00
2023-07-25T03:59:28.581Z,86.00
2023-07-25T04:00:28.570Z,94.00
2023-07-25T04:01:28.667Z,96.00
2023-07-25T04:02:28.649Z,96.00
2023-07-25T04:03:28.720Z,104.00
2023-07-25T04:04:28.635Z,112.00
2023-07-25T04:05:28.514Z,112.00
2023-07-25T04:06:28.524Z,116.00
2023-07-25T04:07:28.503Z,122.00
2023-07-25T04:08:28.463Z,123.00
2023-07-25T04:09:28.486Z,125.00
2023-07-25T04:10:28.488Z,132.00
2023-07-25T04:11:28.447Z,136.00
2023-07-25T04:12:28.450Z,142.00
2023-07-25T04:13:28.410Z,145.00
2023-07-25T04:14:28.407Z,152.00
2023-07-25T04:15:28.459Z,163.00
2023-07-25T04:16:28.449Z,172.00
2023-07-25T04:17:28.427Z,176.00
2023-07-25T04:18:29.226Z,188.00
2023-07-25T04:19:28.486Z,195.00
2023-07-25T04:20:28.351Z,197.00
2023-07-25T04:21:28.445Z,196.00
2023-07-25T04:22:28.404Z,201.00
2023-07-25T04:23:28.375Z,203.00
2023-07-25T04:24:28.309Z,208.00
2023-07-25T04:25:28.292Z,213.00
2023-07-25T04:26:28.274Z,219.00
2023-07-25T04:27:28.278Z,221.00
2023-07-25T04:28:29.883Z,230.00
2023-07-25T04:29:28.246Z,236.00
2023-07-25T04:30:28.255Z,249.00
2023-07-25T04:31:28.237Z,255.00
2023-07-25T04:32:28.233Z,258.00
2023-07-25T04:33:28.231Z,277.00
2023-07-25T04:34:28.447Z,279.00
2023-07-25T04:35:28.176Z,312.00
2023-07-25T04:36:28.200Z,344.00
2023-07-25T04:37:28.151Z,350.00
2023-07-25T04:38:28.178Z,338.00
2023-07-25T04:39:28.146Z,352.00
2023-07-25T04:40:28.127Z,354.00
2023-07-25T04:41:28.122Z,362.00
2023-07-25T04:42:28.165Z,370.00
2023-07-25T04:43:28.114Z,382.00
2023-07-25T04:44:28.174Z,396.00
2023-07-25T04:45:28.069Z,424.00
2023-07-25T04:46:28.103Z,446.00
2023-07-25T04:47:28.145Z,478.00
2023-07-25T04:48:28.046Z,503.00
2023-07-25T04:49:28.200Z,517.00
2023-07-25T04:50:28.035Z,520.00
2023-07-25T04:51:28.019Z,498.00
2023-07-25T04:52:28.019Z,481.00
2023-07-25T04:53:27.989Z,454.00
2023-07-25T04:54:28.002Z,458.00
2023-07-25T04:55:27.982Z,443.00
2023-07-25T04:56:27.959Z,425.00
2023-07-25T04:57:27.986Z,413.00
2023-07-25T04:58:27.943Z,387.00
2023-07-25T04:59:27.950Z,444.00
2023-07-25T05:00:30.605Z,460.00
2023-07-25T05:01:28.046Z,432.00
2023-07-25T05:02:28.925Z,486.00
2023-07-25T05:03:27.941Z,504.00
2023-07-25T05:04:27.908Z,502.00
2023-07-25T05:05:27.891Z,518.00
2023-07-25T05:06:27.856Z,583.00
2023-07-25T05:07:27.845Z,562.00
2023-07-25T05:08:27.872Z,566.00
2023-07-25T05:09:27.812Z,489.00
2023-07-25T05:10:27.821Z,569.00
2023-07-25T05:11:27.821Z,658.00
2023-07-25T05:12:27.804Z,823.00
2023-07-25T05:13:27.881Z,618.00
2023-07-25T05:14:27.792Z,642.00
2023-07-25T05:15:27.750Z,725.00
2023-07-25T05:16:27.841Z,719.00
2023-07-25T05:17:27.814Z,703.00
2023-07-25T05:18:27.722Z,701.00
2023-07-25T05:19:27.717Z,677.00
2023-07-25T05:20:27.739Z,657.00
2023-07-25T05:21:27.688Z,648.00
2023-07-25T05:22:27.704Z,630.00
2023-07-25T05:23:27.682Z,640.00
2023-07-25T05:24:27.765Z,645.00
2023-07-25T05:25:27.677Z,656.00
2023-07-25T05:26:27.638Z,689.00
2023-07-25T05:27:27.655Z,701.00
2023-07-25T05:28:27.635Z,722.00
2023-07-25T05:29:27.608Z,748.00
2023-07-25T05:30:27.632Z,757.00
2023-07-25T05:31:27.685Z,819.00
2023-07-25T05:32:27.616Z,801.00
2023-07-25T05:33:27.582Z,693.00
2023-07-25T05:34:27.548Z,751.00
2023-07-25T05:35:27.553Z,768.00
2023-07-25T05:36:27.565Z,739.00
2023-07-25T05:37:27.508Z,808.00
2023-07-25T05:38:27.537Z,738.00
2023-07-25T05:39:27.524Z,798.00
2023-07-25T05:40:27.482Z,654.00
2023-07-25T05:41:27.498Z,546.00
2023-07-25T05:42:27.511Z,642.00
2023-07-25T05:43:27.466Z,647.00
2023-07-25T05:44:27.447Z,633.00
2023-07-25T05:45:27.452Z,634.00
2023-07-25T05:46:27.470Z,622.00
2023-07-25T05:47:27.456Z,620.00
2023-07-25T05:48:27.402Z,614.00
2023-07-25T05:49:27.397Z,610.00
2023-07-25T05:50:27.399Z,610.00
2023-07-25T05:51:27.430Z,612.00
2023-07-25T05:52:27.369Z,613.00
2023-07-25T05:53:27.364Z,601.00
2023-07-25T05:54:27.346Z,599.00
2023-07-25T05:55:27.337Z,605.00
2023-07-25T05:56:27.392Z,601.00
2023-07-25T05:57:27.307Z,606.00
2023-07-25T05:58:27.306Z,601.00
2023-07-25T05:59:27.332Z,601.00
2023-07-25T06:00:27.288Z,608.00
2023-07-25T06:01:27.359Z,610.00
2023-07-25T06:02:27.286Z,615.00
2023-07-25T06:03:27.318Z,620.00
2023-07-25T06:04:28.002Z,620.00
2023-07-25T06:05:27.245Z,737.00
2023-07-25T06:06:27.234Z,578.00
2023-07-25T06:07:27.204Z,634.00
2023-07-25T06:08:27.241Z,667.00
2023-07-25T06:09:27.263Z,641.00
2023-07-25T06:10:27.184Z,694.00
2023-07-25T06:11:27.204Z,624.00
2023-07-25T06:12:27.190Z,686.00
2023-07-25T06:13:27.190Z,716.00
2023-07-25T06:14:27.134Z,734.00
2023-07-25T06:15:27.133Z,725.00
2023-07-25T06:16:27.239Z,753.00
2023-07-25T06:17:27.162Z,817.00
2023-07-25T06:18:27.089Z,856.00
2023-07-25T06:19:27.136Z,905.00
2023-07-25T06:20:27.101Z,950.00
2023-07-25T06:21:27.072Z,967.00
2023-07-25T06:22:27.042Z,943.00
2023-07-25T06:23:27.079Z,925.00
2023-07-25T06:24:27.078Z,911.00
2023-07-25T06:25:27.019Z,1052.00
2023-07-25T06:26:27.041Z,866.00
2023-07-25T06:27:27.144Z,855.00
2023-07-25T06:28:27.016Z,1020.00
2023-07-25T06:29:26.984Z,680.00
2023-07-25T06:30:27.013Z,964.00
2023-07-25T06:31:26.995Z,1026.00
2023-07-25T06:32:27.008Z,950.00
2023-07-25T06:33:26.939Z,1109.00
2023-07-25T06:34:26.914Z,1202.00
2023-07-25T06:35:26.982Z,1303.00
2023-07-25T06:36:26.918Z,1352.00
2023-07-25T06:37:26.944Z,1442.00
2023-07-25T06:38:26.892Z,1470.00
2023-07-25T06:39:26.872Z,1465.00
2023-07-25T06:40:26.859Z,1384.00
2023-07-25T06:41:26.871Z,1250.00
2023-07-25T06:42:26.818Z,1637.00
2023-07-25T06:43:26.841Z,1161.00
2023-07-25T06:44:26.834Z,1147.00
2023-07-25T06:45:26.842Z,899.00
2023-07-25T06:46:26.818Z,1196.00
2023-07-25T06:47:26.814Z,1065.00
2023-07-25T06:48:26.969Z,1007.00
2023-07-25T06:49:26.777Z,889.00
2023-07-25T06:50:26.782Z,869.00
2023-07-25T06:51:26.744Z,890.00
2023-07-25T06:52:26.785Z,885.00
2023-07-25T06:53:26.730Z,906.00
2023-07-25T06:54:26.709Z,875.00
2023-07-25T06:55:26.717Z,799.00
2023-07-25T06:56:26.699Z,933.00
2023-07-25T06:57:26.688Z,1015.00
2023-07-25T06:58:26.956Z,891.00
2023-07-25T06:59:26.806Z,717.00
2023-07-25T07:00:26.815Z,1414.00
2023-07-25T07:01:27.051Z,925.00
2023-07-25T07:02:26.800Z,390.00
2023-07-25T07:03:26.670Z,1319.00
2023-07-25T07:04:26.768Z,1276.00
2023-07-25T07:05:30.475Z,1222.00
2023-07-25T07:06:26.566Z,1227.00
2023-07-25T07:07:26.586Z,1124.00
2023-07-25T07:08:26.552Z,1443.00
2023-07-25T07:09:26.614Z,1331.00
2023-07-25T07:10:26.612Z,1284.00
2023-07-25T07:11:26.609Z,1230.00
2023-07-25T07:12:26.511Z,1412.00
2023-07-25T07:13:26.513Z,1343.00
2023-07-25T07:14:26.486Z,1409.00
2023-07-25T07:15:26.554Z,1632.00
2023-07-25T07:16:27.073Z,1432.00
2023-07-25T07:17:26.503Z,1301.00
2023-07-25T07:18:26.424Z,1589.00
2023-07-25T07:19:26.445Z,915.00
2023-07-25T07:20:26.451Z,1933.00
2023-07-25T07:21:26.408Z,1766.00
2023-07-25T07:22:26.919Z,1204.00
2023-07-25T07:23:26.429Z,1552.00
2023-07-25T07:24:26.435Z,1209.00
2023-07-25T07:25:26.375Z,1098.00
2023-07-25T07:26:26.365Z,1607.00
2023-07-25T07:27:26.356Z,1970.00
2023-07-25T07:28:26.335Z,1450.00
2023-07-25T07:29:26.881Z,1234.00
2023-07-25T07:30:26.340Z,1497.00
2023-07-25T07:31:26.591Z,1607.00
2023-07-25T07:32:26.330Z,1656.00
2023-07-25T07:33:26.302Z,1937.00
2023-07-25T07:34:26.272Z,1631.00
2023-07-25T07:35:26.274Z,1560.00
2023-07-25T07:36:26.253Z,1517.00
2023-07-25T07:37:26.342Z,1451.00
2023-07-25T07:38:26.238Z,1301.00
2023-07-25T07:39:26.279Z,1518.00
2023-07-25T07:40:26.288Z,2162.00
2023-07-25T07:41:26.263Z,1658.00
2023-07-25T07:42:26.183Z,1856.00
2023-07-25T07:43:26.186Z,1703.00
2023-07-25T07:44:26.342Z,1692.00
2023-07-25T07:45:26.163Z,1495.00
2023-07-25T07:46:26.154Z,1751.00
2023-07-25T07:47:26.162Z,1528.00
2023-07-25T07:48:26.112Z,2260.00
2023-07-25T07:49:26.129Z,1558.00
2023-07-25T07:50:26.209Z,1336.00
2023-07-25T07:51:26.120Z,1271.00
2023-07-25T07:52:37.266Z,1834.00
2023-07-25T07:53:26.103Z,1306.00
2023-07-25T07:54:26.058Z,1439.00
2023-07-25T07:55:26.049Z,1250.00
2023-07-25T07:56:28.282Z,1706.00
2023-07-25T07:57:26.038Z,1630.00
2023-07-25T07:58:26.015Z,1595.00
2023-07-25T07:59:26.074Z,1422.00
2023-07-25T08:00:26.006Z,1573.00
2023-07-25T08:01:26.052Z,1651.00
2023-07-25T08:02:26.000Z,1715.00
2023-07-25T08:03:25.979Z,1877.00
2023-07-25T08:04:25.980Z,1895.00
2023-07-25T08:05:26.026Z,2041.00
2023-07-25T08:06:25.943Z,1970.00
2023-07-25T08:07:26.257Z,1873.00
2023-07-25T08:08:25.967Z,1798.00
2023-07-25T08:09:25.929Z,1819.00
2023-07-25T08:10:26.195Z,1874.00
2023-07-25T08:11:25.878Z,1930.00
2023-07-25T08:12:25.957Z,1875.00
2023-07-25T08:13:25.911Z,1910.00
2023-07-25T08:14:25.848Z,2019.00
2023-07-25T08:15:25.844Z,2134.00
2023-07-25T08:16:26.661Z,1974.00
2023-07-25T08:17:25.874Z,1820.00
2023-07-25T08:18:25.815Z,1773.00
2023-07-25T08:19:25.798Z,1881.00
2023-07-25T08:20:25.810Z,1886.00
2023-07-25T08:21:25.783Z,1810.00
2023-07-25T08:22:25.766Z,1771.00
2023-07-25T08:23:26.966Z,1801.00
2023-07-25T08:24:25.781Z,1835.00
2023-07-25T08:25:25.818Z,1840.00
2023-07-25T08:26:25.730Z,1806.00
2023-07-25T08:27:25.699Z,1766.00
2023-07-25T08:28:25.713Z,1730.00
2023-07-25T08:29:25.762Z,1678.00
2023-07-25T08:30:25.731Z,1675.00
2023-07-25T08:31:25.699Z,1713.00
2023-07-25T08:32:25.749Z,1732.00
2023-07-25T08:33:25.705Z,1615.00
2023-07-25T08:34:25.686Z,1586.00
2023-07-25T08:35:25.653Z,1643.00
2023-07-25T08:36:25.681Z,1653.00
2023-07-25T08:37:25.594Z,1292.00
2023-07-25T08:38:25.648Z,1316.00
2023-07-25T08:39:25.584Z,1307.00
2023-07-25T08:40:25.587Z,1377.00
2023-07-25T08:41:25.585Z,1081.00
2023-07-25T08:42:25.583Z,963.00
2023-07-25T08:43:25.594Z,1055.00
2023-07-25T08:44:25.584Z,1132.00
2023-07-25T08:45:25.529Z,1143.00
2023-07-25T08:46:25.617Z,1197.00
2023-07-25T08:47:25.512Z,1319.00
2023-07-25T08:48:26.687Z,1515.00
2023-07-25T08:49:25.473Z,1716.00
2023-07-25T08:50:25.489Z,1813.00
2023-07-25T08:51:25.521Z,1898.00
2023-07-25T08:52:25.459Z,1957.00
2023-07-25T08:53:25.432Z,2002.00
2023-07-25T08:54:25.450Z,1972.00
2023-07-25T08:55:25.429Z,1936.00
2023-07-25T08:56:25.403Z,1870.00
2023-07-25T08:57:25.464Z,1782.00
2023-07-25T08:58:25.389Z,1786.00
2023-07-25T08:59:25.375Z,1855.00
2023-07-25T09:00:25.376Z,1942.00
2023-07-25T09:01:25.415Z,1812.00
2023-07-25T09:02:25.500Z,2389.00
2023-07-25T09:03:25.403Z,2249.00
2023-07-25T09:04:25.321Z,2237.00
2023-07-25T09:05:26.228Z,2121.00
2023-07-25T09:06:25.355Z,2029.00
2023-07-25T09:07:25.314Z,2509.00
2023-07-25T09:08:25.282Z,2471.00
2023-07-25T09:09:25.279Z,2432.00
2023-07-25T09:10:25.272Z,2197.00
2023-07-25T09:11:25.243Z,2405.00
2023-07-25T09:12:25.224Z,2686.00
2023-07-25T09:13:25.241Z,2243.00
2023-07-25T09:14:25.224Z,2828.00
2023-07-25T09:15:25.214Z,2071.00
2023-07-25T09:16:25.252Z,2009.00
2023-07-25T09:17:25.319Z,1945.00
2023-07-25T09:18:25.246Z,1695.00
2023-07-25T09:19:25.165Z,1879.00
2023-07-25T09:20:25.227Z,1994.00
2023-07-25T09:21:25.165Z,1486.00
2023-07-25T09:22:25.170Z,2365.00
2023-07-25T09:23:25.146Z,2360.00
2023-07-25T09:24:25.136Z,2074.00
2023-07-25T09:25:25.172Z,1795.00
2023-07-25T09:26:25.110Z,1936.00
2023-07-25T09:27:25.092Z,2714.00
2023-07-25T09:28:25.062Z,2287.00
2023-07-25T09:29:25.055Z,1905.00
2023-07-25T09:30:25.570Z,2291.00
2023-07-25T09:31:25.139Z,2363.00
2023-07-25T09:32:25.101Z,1946.00
2023-07-25T09:33:25.031Z,1608.00
2023-07-25T09:34:25.002Z,1567.00
2023-07-25T09:35:24.974Z,1658.00
2023-07-25T09:36:25.023Z,1462.00
2023-07-25T09:37:24.987Z,1539.00
2023-07-25T09:38:24.975Z,1408.00
2023-07-25T09:39:24.957Z,1400.00
2023-07-25T09:40:25.020Z,1529.00
2023-07-25T09:41:24.934Z,1880.00
2023-07-25T09:42:24.933Z,2289.00
2023-07-25T09:43:24.920Z,2420.00
2023-07-25T09:44:24.896Z,2343.00
2023-07-25T09:45:24.931Z,2207.00
2023-07-25T09:46:24.912Z,2072.00
2023-07-25T09:47:25.000Z,2207.00
2023-07-25T09:48:24.901Z,2211.00
2023-07-25T09:49:24.847Z,2094.00
2023-07-25T09:50:24.826Z,2094.00
2023-07-25T09:51:24.864Z,2105.00
2023-07-25T09:52:24.919Z,2225.00
2023-07-25T09:53:24.792Z,2214.00
2023-07-25T09:54:24.798Z,2010.00
2023-07-25T09:55:24.767Z,1921.00
2023-07-25T09:56:24.872Z,2019.00
2023-07-25T09:57:24.761Z,2313.00
2023-07-25T09:58:25.717Z,2432.00
2023-07-25T09:59:24.740Z,2644.00
2023-07-25T10:00:24.725Z,2508.00
2023-07-25T10:01:24.800Z,2569.00
2023-07-25T10:02:24.737Z,2498.00
2023-07-25T10:03:24.712Z,2412.00
2023-07-25T10:04:25.582Z,2478.00
2023-07-25T10:05:24.685Z,2069.00
2023-07-25T10:06:24.666Z,2098.00
2023-07-25T10:07:24.662Z,2111.00
2023-07-25T10:08:24.636Z,2167.00
2023-07-25T10:09:24.757Z,2275.00
2023-07-25T10:10:24.627Z,2097.00
2023-07-25T10:11:24.592Z,2159.00
2023-07-25T10:12:24.601Z,2281.00
2023-07-25T10:13:24.595Z,2219.00
2023-07-25T10:14:24.568Z,1892.00
2023-07-25T10:15:24.567Z,2055.00
2023-07-25T10:16:24.562Z,2360.00
2023-07-25T10:17:24.545Z,1792.00
2023-07-25T10:18:24.569Z,2642.00
2023-07-25T10:19:24.531Z,2194.00
2023-07-25T10:20:24.508Z,1896.00
2023-07-25T10:21:24.539Z,2169.00
2023-07-25T10:22:24.525Z,2201.00
2023-07-25T10:23:24.473Z,2503.00
2023-07-25T10:24:24.535Z,2405.00
2023-07-25T10:25:24.466Z,2469.00
2023-07-25T10:26:25.136Z,2590.00
2023-07-25T10:27:24.983Z,2509.00
2023-07-25T10:28:24.422Z,2331.00
2023-07-25T10:29:24.421Z,2342.00
2023-07-25T10:30:24.472Z,2316.00
2023-07-25T10:31:24.410Z,2252.00
2023-07-25T10:32:24.686Z,2275.00
2023-07-25T10:33:24.405Z,2237.00
2023-07-25T10:34:24.421Z,2346.00
2023-07-25T10:35:24.358Z,2423.00
2023-07-25T10:36:24.352Z,2061.00
2023-07-25T10:37:24.391Z,1737.00
2023-07-25T10:38:24.336Z,1879.00
2023-07-25T10:39:24.297Z,2224.00
2023-07-25T10:40:24.307Z,2178.00
2023-07-25T10:41:24.274Z,2029.00
2023-07-25T10:42:24.276Z,1767.00
2023-07-25T10:43:24.303Z,1861.00
2023-07-25T10:44:24.291Z,2263.00
2023-07-25T10:45:24.246Z,2600.00
2023-07-25T10:46:24.276Z,2747.00
2023-07-25T10:47:24.277Z,2686.00
2023-07-25T10:48:24.230Z,2640.00
2023-07-25T10:49:24.186Z,2605.00
2023-07-25T10:50:24.262Z,2567.00
2023-07-25T10:51:24.215Z,2576.00
2023-07-25T10:52:24.332Z,2472.00
2023-07-25T10:53:24.160Z,2434.00
2023-07-25T10:54:24.159Z,2402.00
2023-07-25T10:55:24.126Z,2219.00
2023-07-25T10:56:24.129Z,2345.00
2023-07-25T10:57:24.128Z,1309.00
2023-07-25T10:58:24.158Z,2413.00
2023-07-25T10:59:24.102Z,2256.00
2023-07-25T11:00:24.078Z,1695.00
2023-07-25T11:01:24.122Z,2475.00
2023-07-25T11:02:24.071Z,2217.00
2023-07-25T11:03:24.048Z,3083.00
2023-07-25T11:04:24.114Z,2994.00
2023-07-25T11:05:24.062Z,1805.00
2023-07-25T11:06:24.028Z,4143.00
2023-07-25T11:07:24.019Z,3165.00
2023-07-25T11:08:23.994Z,2401.00
2023-07-25T11:09:24.033Z,2165.00
2023-07-25T11:10:24.019Z,2237.00
2023-07-25T11:11:24.003Z,2525.00
2023-07-25T11:12:23.971Z,2371.00
2023-07-25T11:13:23.960Z,2820.00
2023-07-25T11:14:23.975Z,2602.00
2023-07-25T11:16:24.571Z,1282.00
2023-07-25T11:17:23.941Z,2525.00
2023-07-25T11:18:23.885Z,1209.00
2023-07-25T11:19:23.927Z,2517.00
2023-07-25T11:20:23.886Z,2165.00
2023-07-25T11:21:23.883Z,2417.00
2023-07-25T11:22:23.854Z,2369.00
2023-07-25T11:23:23.835Z,2324.00
2023-07-25T11:24:23.906Z,2287.00
2023-07-25T11:25:23.880Z,2158.00
2023-07-25T11:26:23.902Z,2111.00
2023-07-25T11:27:23.798Z,2178.00
2023-07-25T11:28:23.776Z,2192.00
2023-07-25T11:29:23.882Z,2150.00
2023-07-25T11:30:23.789Z,2103.00
2023-07-25T11:31:23.774Z,2074.00
2023-07-25T11:32:23.764Z,2084.00
2023-07-25T11:33:23.728Z,2172.00
2023-07-25T11:34:23.737Z,2107.00
2023-07-25T11:35:23.719Z,2061.00
2023-07-25T11:36:23.703Z,2140.00
2023-07-25T11:37:23.723Z,2176.00
2023-07-25T11:38:23.703Z,2152.00
2023-07-25T11:39:23.710Z,2024.00
2023-07-25T11:40:23.671Z,1918.00
2023-07-25T11:41:23.657Z,1922.00
2023-07-25T11:42:23.643Z,1793.00
2023-07-25T11:43:23.624Z,1719.00
2023-07-25T11:44:23.677Z,1688.00
2023-07-25T11:45:23.601Z,1547.00
2023-07-25T11:46:23.636Z,1528.00
2023-07-25T11:47:25.351Z,1687.00
2023-07-25T11:48:23.582Z,1533.00
2023-07-25T11:49:40.096Z,1952.00
2023-07-25T11:50:29.412Z,1728.00
2023-07-25T11:51:23.566Z,1577.00
2023-07-25T11:52:23.529Z,1430.00
2023-07-25T11:53:23.518Z,1469.00
2023-07-25T11:54:23.513Z,1416.00
2023-07-25T11:55:23.496Z,1486.00
2023-07-25T11:56:23.493Z,1346.00
2023-07-25T11:57:23.647Z,986.00
2023-07-25T11:58:23.492Z,1970.00
2023-07-25T11:59:23.515Z,1463.00
2023-07-25T12:00:23.469Z,1364.00
2023-07-25T12:01:23.459Z,1371.00
2023-07-25T12:02:23.465Z,1247.00
2023-07-25T12:03:23.427Z,1278.00
2023-07-25T12:04:23.454Z,755.00
2023-07-25T12:05:23.398Z,2841.00
2023-07-25T12:06:23.385Z,823.00
2023-07-25T12:07:23.376Z,2102.00
2023-07-25T12:08:24.113Z,3014.00
2023-07-25T12:09:23.347Z,1020.00
2023-07-25T12:10:23.527Z,1218.00
2023-07-25T12:11:23.353Z,837.00
2023-07-25T12:12:23.401Z,3493.00
2023-07-25T12:13:23.340Z,864.00
2023-07-25T12:14:23.369Z,1425.00
2023-07-25T12:15:23.289Z,3248.00
2023-07-25T12:16:23.324Z,891.00
2023-07-25T12:17:23.316Z,1964.00
2023-07-25T12:18:23.251Z,1738.00
2023-07-25T12:19:23.256Z,1763.00
2023-07-25T12:20:23.252Z,1582.00
2023-07-25T12:21:23.234Z,4052.00
2023-07-25T12:22:23.228Z,1961.00
2023-07-25T12:23:24.055Z,1840.00
2023-07-25T12:24:23.268Z,1990.00
2023-07-25T12:25:23.265Z,2478.00
2023-07-25T12:26:23.235Z,2179.00
2023-07-25T12:27:23.179Z,1104.00
2023-07-25T12:28:23.155Z,3205.00
2023-07-25T12:29:23.139Z,2835.00
2023-07-25T12:30:23.150Z,1739.00
2023-07-25T12:31:23.136Z,2353.00
2023-07-25T12:32:23.131Z,1036.00